Time;durP1;ratioP1;P1;durP2;ratioP2;P2;SDS_P1;SDS_P2;PMS_P1;PMS_P2;Temp;Humidity;BMP_temperature;BMP_pressure;BME280_temperature;BME280_humidity;BME280_pressure;Samples;Min_cycle;Max_cycle;Signal;HPM_P1;HPM_P2
2022/08/08 00:01:16;;;;;;;1.77;1.67;;;9.40;1.00;;;;;;8340437;28;20189;-66
2022/08/08 00:05:23;;;;;;;3.20;2.30;;;9.30;1.00;;;;;;8339769;28;20352;-67
2022/08/08 00:09:36;;;;;;;2.20;1.70;;;9.20;1.00;;;;;;8352578;28;20208;-66
2022/08/08 00:14:03;;;;;;;2.87;2.07;;;9.20;52.90;;;;;;8336254;28;20210;-67
2022/08/08 00:18:29;;;;;;;2.97;1.87;;;9.00;99.90;;;;;;8344845;28;20193;-66
2022/08/08 00:22:49;;;;;;;2.07;1.70;;;9.00;1.00;;;;;;8336405;28;20213;-66
2022/08/08 00:26:55;;;;;;;2.67;1.93;;;8.90;99.90;;;;;;8337513;28;20336;-67
2022/08/08 00:30:58;;;;;;;2.23;2.00;;;8.90;99.90;;;;;;8338317;28;20185;-67
2022/08/08 00:35:15;;;;;;;1.93;1.73;;;8.90;99.90;;;;;;8338921;28;20386;-66
2022/08/08 00:39:21;;;;;;;2.90;2.10;;;8.80;99.90;;;;;;8339306;28;20178;-66
2022/08/08 00:43:25;;;;;;;2.90;2.07;;;8.80;99.90;;;;;;8339229;28;20181;-66
2022/08/08 00:47:47;;;;;;;2.40;1.97;;;8.80;99.90;;;;;;8337297;28;20220;-66
2022/08/08 00:52:09;;;;;;;2.83;2.03;;;8.70;99.90;;;;;;8335631;28;20182;-66
2022/08/08 00:56:16;;;;;;;2.70;2.23;;;8.70;1.00;;;;;;8336213;28;20213;-66
2022/08/08 01:00:23;;;;;;;5.93;2.93;;;8.60;1.00;;;;;;8350187;28;20236;-67
2022/08/08 01:04:29;;;;;;;3.00;2.53;;;8.60;99.90;;;;;;8336634;28;20189;-66
2022/08/08 01:08:36;;;;;;;2.97;2.37;;;8.50;1.00;;;;;;8334995;28;20187;-66
2022/08/08 01:12:49;;;;;;;2.73;1.90;;;8.40;99.90;;;;;;8339442;28;20228;-66
2022/08/08 01:16:55;;;;;;;3.50;2.20;;;8.40;99.90;;;;;;8338170;28;20212;-66
2022/08/08 01:21:13;;;;;;;2.17;1.97;;;8.30;1.00;;;;;;8337956;28;20174;-66
2022/08/08 01:25:49;;;;;;;2.63;2.00;;;8.20;99.90;;;;;;8338081;28;20221;-65
2022/08/08 01:30:21;;;;;;;3.20;1.90;;;8.20;1.00;;;;;;8345704;28;20556;-65
2022/08/08 01:34:56;;;;;;;2.83;2.00;;;8.10;1.00;;;;;;8343483;28;20210;-65
2022/08/08 01:39:05;;;;;;;3.63;2.47;;;8.10;1.00;;;;;;8342952;28;20269;-66
2022/08/08 01:43:22;;;;;;;3.53;2.40;;;8.10;99.90;;;;;;8342775;28;20183;-66
2022/08/08 01:47:55;;;;;;;3.50;2.10;;;8.00;20.70;;;;;;8339690;28;20186;-65
2022/08/08 01:52:11;;;;;;;4.10;2.03;;;8.00;99.90;;;;;;8348070;28;20181;-66
2022/08/08 01:56:31;;;;;;;2.03;1.70;;;8.00;99.90;;;;;;8350102;28;20212;-65
2022/08/08 02:00:45;;;;;;;3.27;1.90;;;8.00;99.90;;;;;;8340681;28;20183;-66
2022/08/08 02:04:49;;;;;;;2.30;2.07;;;7.90;99.90;;;;;;8340178;28;20254;-65
2022/08/08 02:09:14;;;;;;;2.23;1.97;;;7.90;1.00;;;;;;8342208;28;20293;-66
2022/08/08 02:13:57;;;;;;;2.80;2.37;;;7.90;99.90;;;;;;8347521;28;20238;-65
2022/08/08 02:18:25;;;;;;;4.43;2.37;;;7.90;99.90;;;;;;8340218;28;20210;-66
2022/08/08 02:22:37;;;;;;;2.33;2.13;;;7.80;99.90;;;;;;8339640;28;20198;-66
2022/08/08 02:26:48;;;;;;;2.47;2.03;;;7.70;1.00;;;;;;8339540;28;20209;-66
2022/08/08 02:31:10;;;;;;;2.97;2.40;;;7.70;1.00;;;;;;8344502;28;20202;-65
2022/08/08 02:35:20;;;;;;;2.83;2.43;;;7.60;1.00;;;;;;8345435;28;20209;-65
2022/08/08 02:40:00;;;;;;;3.23;2.37;;;7.60;1.00;;;;;;8356098;28;20174;-66
2022/08/08 02:44:17;;;;;;;2.40;2.10;;;7.50;30.90;;;;;;8354980;28;20194;-68
2022/08/08 02:48:54;;;;;;;2.60;2.40;;;7.40;99.90;;;;;;8342716;28;20214;-65
2022/08/08 02:53:03;;;;;;;3.27;2.80;;;7.40;99.90;;;;;;8337170;28;20186;-66
2022/08/08 02:57:23;;;;;;;3.47;2.53;;;7.40;99.90;;;;;;8347713;28;20190;-65
2022/08/08 03:01:56;;;;;;;2.63;2.27;;;7.30;99.90;;;;;;8343046;28;20186;-65
2022/08/08 03:06:17;;;;;;;3.40;2.70;;;7.30;99.90;;;;;;8337582;28;20185;-65
2022/08/08 03:10:21;;;;;;;3.40;2.20;;;7.20;99.90;;;;;;8342007;28;20256;-65
2022/08/08 03:14:50;;;;;;;4.03;3.03;;;7.20;99.90;;;;;;8341192;28;20216;-66
2022/08/08 03:19:11;;;;;;;3.70;2.70;;;7.20;99.90;;;;;;8336909;28;20517;-65
2022/08/08 03:23:12;;;;;;;2.53;2.27;;;7.20;99.90;;;;;;8323596;28;20186;-66
2022/08/08 03:27:22;;;;;;;3.20;2.73;;;7.20;99.90;;;;;;8341179;28;20270;-65
2022/08/08 03:35:48;;;;;;;4.53;2.67;;;7.20;99.90;;;;;;8340216;28;20216;-65
2022/08/08 03:39:48;;;;;;;3.53;2.43;;;7.20;99.90;;;;;;8346092;28;20186;-65
2022/08/08 03:43:56;;;;;;;2.77;2.40;;;7.30;99.90;;;;;;8340581;28;20233;-64
2022/08/08 03:48:07;;;;;;;3.07;2.63;;;7.30;99.90;;;;;;8339653;28;20246;-64
2022/08/08 03:52:09;;;;;;;4.37;2.83;;;7.40;99.90;;;;;;8340908;28;20181;-64
2022/08/08 03:56:09;;;;;;;6.57;4.73;;;7.40;99.90;;;;;;8337466;28;20237;-64
2022/08/08 04:00:13;;;;;;;4.30;3.80;;;7.30;99.90;;;;;;8354403;28;20798;-64
2022/08/08 04:04:18;;;;;;;3.60;3.30;;;7.30;99.90;;;;;;8346637;28;20186;-65
2022/08/08 04:08:22;;;;;;;3.83;3.33;;;7.20;99.90;;;;;;8338531;28;20182;-65
2022/08/08 04:12:23;;;;;;;4.20;3.20;;;7.70;99.90;;;;;;8339830;28;20335;-65
2022/08/08 04:16:25;;;;;;;6.07;3.03;;;8.80;99.90;;;;;;8337310;28;20206;-65
2022/08/08 04:20:26;;;;;;;3.43;2.50;;;9.90;99.90;;;;;;8337774;28;20183;-65
2022/08/08 04:24:26;;;;;;;3.03;2.47;;;11.00;99.90;;;;;;8341496;28;20216;-66
2022/08/08 04:28:27;;;;;;;4.67;2.40;;;11.90;1.00;;;;;;8353883;28;20187;-65
2022/08/08 04:32:28;;;;;;;3.60;1.87;;;12.60;21.10;;;;;;8344341;28;20193;-66
2022/08/08 04:36:29;;;;;;;2.80;1.93;;;12.90;1.00;;;;;;8341039;28;20210;-65
2022/08/08 04:40:30;;;;;;;3.67;2.10;;;13.40;99.90;;;;;;8336525;28;20201;-65
2022/08/08 04:44:31;;;;;;;3.00;2.00;;;13.90;86.80;;;;;;8340291;28;20192;-65
2022/08/08 04:48:32;;;;;;;2.13;1.90;;;13.90;1.00;;;;;;8346420;28;20195;-69
2022/08/08 04:52:33;;;;;;;3.17;2.10;;;14.00;1.00;;;;;;8344827;28;20182;-65
2022/08/08 04:56:34;;;;;;;2.83;2.00;;;14.00;1.00;;;;;;8337683;28;20212;-65
2022/08/08 05:00:34;;;;;;;1.90;1.70;;;14.20;1.00;;;;;;8338195;28;20265;-65
2022/08/08 05:04:35;;;;;;;2.43;1.67;;;14.60;1.00;;;;;;8338991;28;20205;-65
2022/08/08 05:08:36;;;;;;;5.70;2.77;;;14.70;1.00;;;;;;8345441;28;20178;-65
2022/08/08 05:12:37;;;;;;;3.87;2.30;;;14.30;1.00;;;;;;8352579;28;20213;-66
2022/08/08 05:16:38;;;;;;;5.20;3.60;;;14.00;1.00;;;;;;8342530;28;20214;-66
2022/08/08 05:20:39;;;;;;;9.90;4.40;;;13.80;75.20;;;;;;8340643;28;20209;-65
2022/08/08 05:24:40;;;;;;;10.93;4.97;;;13.60;99.90;;;;;;8338521;28;20240;-66
2022/08/08 05:28:41;;;;;;;20.80;10.60;;;13.60;99.90;;;;;;8340891;28;20182;-66
2022/08/08 05:32:43;;;;;;;14.70;7.80;;;13.70;99.90;;;;;;8340512;28;20182;-66
2022/08/08 05:36:46;;;;;;;23.37;12.20;;;13.70;1.00;;;;;;8335792;28;20337;-65
2022/08/08 05:40:50;;;;;;;69.97;31.37;;;13.70;57.20;;;;;;8342352;28;20235;-66
2022/08/08 05:44:51;;;;;;;27.23;12.80;;;13.60;1.00;;;;;;8342749;28;20189;-65
2022/08/08 05:48:54;;;;;;;50.20;23.63;;;13.80;74.30;;;;;;8336501;28;20186;-66
2022/08/08 05:52:55;;;;;;;42.47;22.67;;;14.00;1.00;;;;;;8336483;28;20185;-66
2022/08/08 05:56:56;;;;;;;59.03;31.77;;;14.20;99.90;;;;;;8336086;28;20214;-66
2022/08/08 06:01:01;;;;;;;79.23;38.87;;;14.40;1.00;;;;;;8336278;28;20177;-66
2022/08/08 06:05:03;;;;;;;81.20;39.00;;;14.70;1.00;;;;;;8334979;28;20191;-65
2022/08/08 06:09:05;;;;;;;89.17;45.20;;;14.90;1.00;;;;;;8335093;28;20204;-65
2022/08/08 06:13:07;;;;;;;88.23;41.93;;;15.20;99.90;;;;;;8343023;28;20217;-65
2022/08/08 06:17:09;;;;;;;91.13;46.07;;;15.50;99.90;;;;;;8346272;28;20240;-66
2022/08/08 06:21:10;;;;;;;70.20;34.53;;;15.80;25.50;;;;;;8348769;28;20182;-65
2022/08/08 06:25:11;;;;;;;56.70;29.63;;;15.90;1.00;;;;;;8338259;28;20236;-66
2022/08/08 06:29:16;;;;;;;44.60;23.23;;;16.00;1.00;;;;;;8340358;28;20182;-65
2022/08/08 06:33:25;;;;;;;32.93;18.00;;;16.20;1.00;;;;;;8341847;28;20189;-65
2022/08/08 06:37:32;;;;;;;24.83;12.50;;;16.40;1.00;;;;;;8345843;28;20201;-66
2022/08/08 06:41:36;;;;;;;18.13;9.17;;;16.60;99.90;;;;;;8336705;28;20190;-66
2022/08/08 06:45:38;;;;;;;13.87;8.40;;;16.80;99.90;;;;;;8364182;28;20179;-66
2022/08/08 06:49:40;;;;;;;12.40;6.90;;;17.00;99.90;;;;;;8345312;28;20217;-65
2022/08/08 06:53:41;;;;;;;12.80;4.33;;;17.20;99.90;;;;;;8341058;28;20296;-66
2022/08/08 06:57:42;;;;;;;8.43;3.53;;;17.40;99.90;;;;;;8337739;28;20189;-66
2022/08/08 07:02:01;;;;;;;9.13;3.70;;;17.60;99.90;;;;;;8338116;28;20183;-66
2022/08/08 07:06:04;;;;;;;4.90;3.17;;;17.80;99.90;;;;;;8340666;28;20194;-66
2022/08/08 07:10:08;;;;;;;7.10;2.73;;;18.00;99.90;;;;;;8337082;28;20217;-65
2022/08/08 07:14:16;;;;;;;4.93;2.47;;;18.20;99.90;;;;;;8334695;28;20214;-65
2022/08/08 07:18:48;;;;;;;4.03;2.60;;;18.50;99.90;;;;;;8334731;28;20178;-66
2022/08/08 07:23:01;;;;;;;3.93;2.50;;;18.60;99.90;;;;;;8341151;28;20183;-66
2022/08/08 07:27:04;;;;;;;3.13;2.10;;;18.80;99.90;;;;;;8338342;28;20185;-66
2022/08/08 07:31:05;;;;;;;3.43;1.90;;;19.00;67.90;;;;;;8339679;28;20226;-65
2022/08/08 07:35:07;;;;;;;6.13;3.00;;;19.20;56.60;;;;;;8340576;28;20218;-65
2022/08/08 07:39:08;;;;;;;2.57;1.73;;;19.40;26.90;;;;;;8336193;28;20183;-66
2022/08/08 07:43:10;;;;;;;3.60;1.43;;;19.50;4.70;;;;;;8339436;28;20272;-65
2022/08/08 07:47:10;;;;;;;4.13;2.77;;;19.80;1.00;;;;;;8351496;28;20190;-66
2022/08/08 07:51:11;;;;;;;3.90;1.47;;;20.10;1.00;;;;;;8335661;28;20221;-66
2022/08/08 07:55:32;;;;;;;4.10;1.50;;;20.20;1.00;;;;;;8348902;28;20253;-65
2022/08/08 07:59:39;;;;;;;1.67;1.00;;;20.40;1.00;;;;;;8336036;28;20277;-65
2022/08/08 08:03:44;;;;;;;2.17;1.20;;;20.70;1.00;;;;;;8341431;28;20239;-66
2022/08/08 08:07:50;;;;;;;3.97;1.30;;;20.90;1.00;;;;;;8343674;28;20179;-66
2022/08/08 08:11:51;;;;;;;1.20;1.00;;;21.00;1.00;;;;;;8336704;28;20220;-65
2022/08/08 08:16:05;;;;;;;1.40;1.30;;;21.10;1.00;;;;;;8336770;28;20627;-65
2022/08/08 08:20:07;;;;;;;1.53;1.00;;;21.20;1.00;;;;;;8319005;28;20221;-65
2022/08/08 08:24:11;;;;;;;1.87;0.93;;;21.40;1.00;;;;;;8337569;28;20246;-66
2022/08/08 08:28:12;;;;;;;1.93;1.30;;;21.60;1.00;;;;;;8353471;28;20213;-67
2022/08/08 08:32:13;;;;;;;1.97;0.90;;;21.60;1.00;;;;;;8337846;28;20190;-64
2022/08/08 08:36:14;;;;;;;1.53;1.20;;;21.60;1.00;;;;;;8336599;28;20301;-65
2022/08/08 08:40:16;;;;;;;2.13;1.10;;;21.90;1.00;;;;;;8335765;28;20270;-66
2022/08/08 08:44:17;;;;;;;2.00;0.93;;;22.20;1.00;;;;;;8353053;28;20182;-65
2022/08/08 08:48:19;;;;;;;1.40;1.10;;;22.30;1.00;;;;;;8344076;28;20190;-65
2022/08/08 08:52:21;;;;;;;2.13;1.10;;;22.30;1.00;;;;;;8336599;28;20187;-66
2022/08/08 08:56:24;;;;;;;2.93;1.20;;;22.50;1.00;;;;;;8353638;28;20213;-65
2022/08/08 09:00:25;;;;;;;2.47;1.53;;;22.60;1.00;;;;;;8333109;28;20206;-66
2022/08/08 09:04:32;;;;;;;1.37;1.10;;;22.40;1.00;;;;;;8338379;28;20215;-67
2022/08/08 09:08:37;;;;;;;3.27;1.07;;;22.60;1.00;;;;;;8336015;28;20186;-64
2022/08/08 09:12:39;;;;;;;3.00;1.17;;;22.90;1.00;;;;;;8337125;28;20305;-66
2022/08/08 09:16:41;;;;;;;2.43;0.97;;;23.20;1.00;;;;;;8338295;28;20213;-63
2022/08/08 09:20:44;;;;;;;2.70;1.20;;;23.50;1.00;;;;;;8335544;28;20183;-67
2022/08/08 09:24:46;;;;;;;0.83;0.83;;;23.60;1.00;;;;;;8336193;28;20193;-65
2022/08/08 09:28:49;;;;;;;1.73;0.70;;;23.70;1.00;;;;;;8334259;28;20251;-65
2022/08/08 09:32:55;;;;;;;2.30;1.00;;;23.90;1.00;;;;;;8343110;28;20428;-66
2022/08/08 09:37:03;;;;;;;1.83;1.00;;;24.20;1.00;;;;;;8348075;28;20210;-66
2022/08/08 09:41:05;;;;;;;2.23;0.83;;;24.30;1.00;;;;;;8336210;28;20195;-65
2022/08/08 09:45:21;;;;;;;2.57;1.40;;;24.50;1.00;;;;;;8339475;28;20201;-65
2022/08/08 09:49:22;;;;;;;2.13;0.80;;;24.80;1.00;;;;;;8339100;28;20190;-69
2022/08/08 09:53:41;;;;;;;1.27;0.80;;;25.40;1.00;;;;;;8342176;28;20263;-64
2022/08/08 09:57:47;;;;;;;1.63;0.90;;;25.90;1.00;;;;;;8354291;28;20182;-65
2022/08/08 10:01:51;;;;;;;2.17;1.00;;;26.00;1.00;;;;;;8337606;28;20174;-65
2022/08/08 10:05:51;;;;;;;2.08;1.00;;;26.20;99.90;;;;;;8344255;28;20189;-66
2022/08/08 10:09:52;;;;;;;2.05;0.82;;;26.40;99.90;;;;;;8354414;28;20197;-65
2022/08/08 10:13:56;;;;;;;2.17;0.70;;;26.60;99.90;;;;;;8337935;28;20206;-67
2022/08/08 10:17:56;;;;;;;1.58;0.95;;;26.70;99.90;;;;;;8338826;28;20182;-66
2022/08/08 10:21:58;;;;;;;1.85;1.10;;;26.70;99.90;;;;;;8353698;28;20182;-66
2022/08/08 10:25:59;;;;;;;1.08;0.88;;;26.80;99.90;;;;;;8342700;28;20197;-66
2022/08/08 10:30:03;;;;;;;4.05;0.90;;;26.90;99.90;;;;;;8334944;28;20185;-66
2022/08/08 10:34:09;;;;;;;3.08;1.00;;;26.70;99.90;;;;;;8341922;28;20252;-68
2022/08/08 10:38:14;;;;;;;1.95;0.88;;;26.30;99.90;;;;;;8344263;28;20189;-66
2022/08/08 10:42:19;;;;;;;3.20;1.00;;;25.60;99.90;;;;;;8356402;28;20185;-66
2022/08/08 10:46:27;;;;;;;2.83;1.10;;;25.50;99.90;;;;;;8344109;28;20320;-70
2022/08/08 10:50:36;;;;;;;3.17;1.00;;;25.60;99.90;;;;;;8355777;28;20189;-66
2022/08/08 10:54:38;;;;;;;3.07;1.30;;;25.30;99.90;;;;;;8333318;28;20260;-66
2022/08/08 10:58:39;;;;;;;1.80;1.10;;;25.00;99.90;;;;;;8336326;28;20249;-66
2022/08/08 11:02:40;;;;;;;1.20;0.70;;;24.60;99.90;;;;;;8334082;28;20320;-66
2022/08/08 11:06:41;;;;;;;2.43;0.93;;;24.60;99.90;;;;;;8356472;28;20268;-66
2022/08/08 11:10:42;;;;;;;2.23;0.90;;;24.40;99.90;;;;;;8353802;28;20309;-66
2022/08/08 11:14:52;;;;;;;2.40;1.27;;;24.50;99.90;;;;;;8352130;28;20513;-66
2022/08/08 11:18:54;;;;;;;1.20;1.00;;;24.70;99.90;;;;;;8340969;28;20519;-66
2022/08/08 11:23:00;;;;;;;2.83;1.40;;;24.50;99.90;;;;;;8342090;28;20178;-65
2022/08/08 11:27:04;;;;;;;1.47;1.00;;;24.50;99.90;;;;;;8351830;28;20189;-66
2022/08/08 11:31:06;;;;;;;2.80;0.90;;;24.40;99.90;;;;;;8338324;28;20239;-66
2022/08/08 11:35:11;;;;;;;2.13;1.10;;;24.20;1.00;;;;;;8341636;28;20271;-66
2022/08/08 11:39:12;;;;;;;2.63;1.00;;;24.00;99.90;;;;;;8354137;28;20186;-66
2022/08/08 11:43:15;;;;;;;1.40;0.80;;;24.00;99.90;;;;;;8341657;28;20192;-66
2022/08/08 11:47:16;;;;;;;2.33;0.90;;;24.40;99.90;;;;;;8343530;28;20221;-66
2022/08/08 11:51:21;;;;;;;2.53;1.03;;;25.00;99.90;;;;;;8345080;28;20189;-66
2022/08/08 11:55:25;;;;;;;6.30;1.47;;;25.50;99.90;;;;;;8346171;28;20291;-67
2022/08/08 11:59:33;;;;;;;2.33;1.27;;;25.60;99.90;;;;;;8336456;28;20186;-66
2022/08/08 12:03:35;;;;;;;1.60;0.83;;;25.40;99.90;;;;;;8343626;28;20186;-66
2022/08/08 12:07:54;;;;;;;2.10;1.10;;;25.10;99.90;;;;;;8341601;28;20193;-66
2022/08/08 12:11:55;;;;;;;2.60;1.10;;;24.90;99.90;;;;;;8337085;28;20217;-66
2022/08/08 12:16:22;;;;;;;2.00;1.37;;;24.80;99.90;;;;;;8354543;28;20230;-66
2022/08/08 12:20:23;;;;;;;1.50;1.10;;;24.60;99.90;;;;;;8350126;28;20191;-66
2022/08/08 12:24:23;;;;;;;1.30;1.00;;;24.70;99.90;;;;;;8343742;28;20182;-67
2022/08/08 12:28:24;;;;;;;2.03;0.80;;;25.10;99.90;;;;;;8337518;28;20254;-67
2022/08/08 12:32:25;;;;;;;2.70;0.93;;;25.50;99.90;;;;;;8355085;28;20186;-66
2022/08/08 12:36:40;;;;;;;1.90;1.10;;;25.60;99.90;;;;;;8338512;28;20226;-66
2022/08/08 12:40:53;;;;;;;1.70;0.90;;;25.90;99.90;;;;;;8336523;28;20185;-66
2022/08/08 12:45:06;;;;;;;1.27;0.70;;;26.00;99.90;;;;;;8349569;28;20179;-66
2022/08/08 12:49:06;;;;;;;1.58;0.77;;;26.00;99.90;;;;;;8341722;28;20248;-66
2022/08/08 12:53:22;;;;;;;4.43;1.48;;;26.30;99.90;;;;;;8341605;28;20189;-66
2022/08/08 12:57:23;;;;;;;1.90;0.95;;;26.60;99.90;;;;;;8338657;28;20191;-66
2022/08/08 13:01:35;;;;;;;1.75;0.93;;;26.50;99.90;;;;;;8348253;28;20236;-66
2022/08/08 13:05:36;;;;;;;2.92;1.10;;;26.10;99.90;;;;;;8338764;28;20183;-66
2022/08/08 13:09:44;;;;;;;1.23;0.82;;;26.30;99.90;;;;;;8332745;28;20201;-66
2022/08/08 13:14:02;;;;;;;1.45;0.85;;;26.70;99.90;;;;;;8339986;28;20217;-66
2022/08/08 13:18:03;;;;;;;2.03;1.05;;;26.90;99.90;;;;;;8332852;28;20178;-66
2022/08/08 13:22:06;;;;;;;4.15;1.10;;;27.10;99.90;;;;;;8349225;28;20256;-66
2022/08/08 13:26:08;;;;;;;3.85;0.80;;;27.30;99.90;;;;;;8353894;28;20217;-67
2022/08/08 13:30:10;;;;;;;1.73;0.90;;;27.50;99.90;;;;;;8345230;28;20194;-66
2022/08/08 13:34:21;;;;;;;1.20;0.90;;;27.50;99.90;;;;;;8342735;28;20202;-66
2022/08/08 13:38:22;;;;;;;1.92;1.02;;;27.10;99.90;;;;;;8347016;28;20182;-66
2022/08/08 13:42:24;;;;;;;4.18;0.90;;;27.10;99.90;;;;;;8348235;28;20186;-69
2022/08/08 13:46:25;;;;;;;2.50;0.93;;;27.20;99.90;;;;;;8351338;28;20182;-66
2022/08/08 13:50:26;;;;;;;1.60;0.68;;;27.10;99.90;;;;;;8355252;28;20277;-66
2022/08/08 13:54:30;;;;;;;2.30;0.90;;;26.70;99.90;;;;;;8344519;28;20288;-66
2022/08/08 13:58:30;;;;;;;1.13;0.80;;;26.10;99.90;;;;;;8341924;28;20182;-67
2022/08/08 14:02:33;;;;;;;1.00;0.70;;;25.80;99.90;;;;;;8351858;28;20189;-67
2022/08/08 14:06:44;;;;;;;1.50;0.90;;;25.60;99.90;;;;;;8348953;28;20182;-66
2022/08/08 14:10:45;;;;;;;1.58;0.80;;;25.80;99.90;;;;;;8357966;28;20299;-67
2022/08/08 14:14:46;;;;;;;2.90;1.00;;;26.20;99.90;;;;;;8346678;28;20629;-66
2022/08/08 14:18:50;;;;;;;1.20;0.80;;;26.50;99.90;;;;;;8339721;28;20185;-66
2022/08/08 14:22:51;;;;;;;1.38;0.90;;;26.50;99.90;;;;;;8342518;28;20180;-68
2022/08/08 14:26:53;;;;;;;1.85;1.10;;;26.90;99.90;;;;;;8338485;28;20178;-66
2022/08/08 14:31:06;;;;;;;1.92;1.08;;;27.20;99.90;;;;;;8337288;28;20265;-65
2022/08/08 14:35:08;;;;;;;2.00;0.75;;;27.00;99.90;;;;;;8339621;28;20210;-66
2022/08/08 14:39:08;;;;;;;1.30;0.73;;;26.50;99.90;;;;;;8336994;28;20184;-66
2022/08/08 14:43:09;;;;;;;1.67;0.67;;;26.10;99.90;;;;;;8346598;28;20600;-66
2022/08/08 14:47:10;;;;;;;1.20;0.80;;;25.80;99.90;;;;;;8340038;28;20186;-67
2022/08/08 14:51:12;;;;;;;1.53;0.70;;;25.60;99.90;;;;;;8340701;28;20182;-66
2022/08/08 14:55:15;;;;;;;1.67;0.90;;;25.40;99.90;;;;;;8358375;28;20198;-65
2022/08/08 14:59:15;;;;;;;2.40;0.77;;;25.60;99.90;;;;;;8346305;28;20182;-65
2022/08/08 15:03:16;;;;;;;2.47;0.93;;;25.70;99.90;;;;;;8353525;28;20178;-66
2022/08/08 15:07:19;;;;;;;1.33;0.80;;;26.00;99.90;;;;;;8341010;28;20186;-66
2022/08/08 15:11:20;;;;;;;1.10;0.70;;;26.10;99.90;;;;;;8337530;28;20226;-66
2022/08/08 15:15:21;;;;;;;1.73;0.60;;;26.50;99.90;;;;;;8342219;28;20260;-66
2022/08/08 15:19:21;;;;;;;3.67;1.08;;;26.90;99.90;;;;;;8340160;28;20190;-66
2022/08/08 15:23:22;;;;;;;1.08;0.70;;;26.90;99.90;;;;;;8339870;28;20216;-70
2022/08/08 15:27:23;;;;;;;1.77;0.68;;;26.80;99.90;;;;;;8334002;28;20218;-66
2022/08/08 15:31:24;;;;;;;3.22;0.82;;;27.00;99.90;;;;;;8340525;28;20182;-65
2022/08/08 15:35:25;;;;;;;3.30;1.05;;;26.90;99.90;;;;;;8337144;28;20228;-67
2022/08/08 15:39:31;;;;;;;2.97;0.80;;;27.00;99.90;;;;;;8337388;28;20186;-66
2022/08/08 15:43:32;;;;;;;2.83;0.57;;;26.90;99.90;;;;;;8341041;28;20174;-66
2022/08/08 15:47:33;;;;;;;3.13;0.90;;;26.80;99.90;;;;;;8346300;28;20229;-66
2022/08/08 15:51:33;;;;;;;1.93;0.90;;;26.60;99.90;;;;;;8343952;28;20193;-66
2022/08/08 15:55:34;;;;;;;2.40;0.80;;;26.10;99.90;;;;;;8341186;28;20273;-66
2022/08/08 15:59:36;;;;;;;2.50;0.90;;;25.80;99.90;;;;;;8350430;28;20187;-67
2022/08/08 16:03:37;;;;;;;1.13;0.77;;;25.50;99.90;;;;;;8344886;28;20178;-66
2022/08/08 16:07:38;;;;;;;1.13;0.80;;;25.20;99.90;;;;;;8334108;28;20190;-66
2022/08/08 16:11:42;;;;;;;1.87;1.00;;;25.00;99.90;;;;;;8334636;28;20369;-66
2022/08/08 16:15:43;;;;;;;0.80;0.70;;;25.00;99.90;;;;;;8347111;28;20214;-66
2022/08/08 16:19:44;;;;;;;1.00;0.60;;;24.90;99.90;;;;;;8351056;28;20186;-65
2022/08/08 16:23:45;;;;;;;2.07;1.50;;;24.80;99.90;;;;;;8334262;28;20183;-66
2022/08/08 16:27:45;;;;;;;1.30;0.97;;;24.70;99.90;;;;;;8335869;28;20189;-65
2022/08/08 16:31:48;;;;;;;1.43;0.77;;;24.70;99.90;;;;;;8337292;28;20552;-66
2022/08/08 16:35:50;;;;;;;1.30;0.67;;;24.80;99.90;;;;;;8351539;28;20293;-65
2022/08/08 16:39:52;;;;;;;2.07;0.90;;;24.80;99.90;;;;;;8333740;28;20185;-65
2022/08/08 16:43:53;;;;;;;1.53;0.80;;;24.80;99.90;;;;;;8349291;28;20188;-66
2022/08/08 16:47:54;;;;;;;2.33;0.73;;;24.90;99.90;;;;;;8339452;28;20181;-65
2022/08/08 16:51:54;;;;;;;1.33;0.70;;;24.90;99.90;;;;;;8335504;28;20186;-65
2022/08/08 16:55:55;;;;;;;4.03;0.80;;;24.70;99.90;;;;;;8348879;28;20213;-65
2022/08/08 16:59:56;;;;;;;2.03;0.73;;;24.60;99.90;;;;;;8340021;28;20233;-65
2022/08/08 17:03:57;;;;;;;1.70;0.67;;;24.50;99.90;;;;;;8336143;28;20186;-65
2022/08/08 17:07:58;;;;;;;2.57;0.97;;;24.40;99.90;;;;;;8336793;28;20186;-66
2022/08/08 17:11:59;;;;;;;3.43;0.93;;;24.20;99.90;;;;;;8335259;28;20221;-66
2022/08/08 17:15:59;;;;;;;8.90;1.63;;;23.90;99.90;;;;;;8333528;28;20212;-65
2022/08/08 17:20:03;;;;;;;1.83;0.90;;;23.80;99.90;;;;;;8335607;28;20177;-65
2022/08/08 17:24:04;;;;;;;15.93;11.17;;;23.70;99.90;;;;;;8336008;28;20577;-65
2022/08/08 17:28:05;;;;;;;38.03;27.00;;;23.50;99.90;;;;;;8337866;28;20189;-65
2022/08/08 17:32:06;;;;;;;8.23;5.90;;;23.50;99.90;;;;;;8336474;28;20218;-65
2022/08/08 17:36:07;;;;;;;2.43;1.30;;;23.40;99.90;;;;;;8337884;28;20218;-65
2022/08/08 17:40:09;;;;;;;4.87;1.80;;;23.50;99.90;;;;;;8339922;28;20243;-66
2022/08/08 17:44:10;;;;;;;2.97;1.17;;;23.70;99.90;;;;;;8335479;28;20187;-65
2022/08/08 17:48:11;;;;;;;2.43;1.17;;;23.80;99.90;;;;;;8334187;28;20190;-65
2022/08/08 17:52:12;;;;;;;3.23;0.90;;;24.00;99.90;;;;;;8335738;28;20190;-64
2022/08/08 17:56:13;;;;;;;2.60;1.10;;;24.20;99.90;;;;;;8330150;28;20228;-65
2022/08/08 18:00:14;;;;;;;1.57;0.80;;;24.50;99.90;;;;;;8334655;28;20193;-65
2022/08/08 18:04:27;;;;;;;1.13;0.90;;;24.70;1.00;;;;;;8335155;28;20194;-64
2022/08/08 18:08:33;;;;;;;1.00;0.70;;;24.50;1.00;;;;;;8350051;28;20190;-64
2022/08/08 18:12:34;;;;;;;1.67;0.80;;;24.00;1.00;;;;;;8337941;28;20212;-64
2022/08/08 18:16:36;;;;;;;0.67;0.50;;;23.30;1.00;;;;;;8348546;28;20214;-65
2022/08/08 18:20:37;;;;;;;0.87;0.60;;;22.60;1.00;;;;;;8350253;28;20185;-65
2022/08/08 18:24:40;;;;;;;0.70;0.50;;;22.00;1.00;;;;;;8339106;28;20297;-65
2022/08/08 18:28:41;;;;;;;0.53;0.37;;;21.40;1.00;;;;;;8337724;28;20183;-65
2022/08/08 18:32:41;;;;;;;1.67;0.70;;;20.80;1.00;;;;;;8337729;28;20185;-65
2022/08/08 18:36:42;;;;;;;5.00;0.90;;;20.30;1.00;;;;;;8337825;28;20209;-65
2022/08/08 18:40:43;;;;;;;3.23;1.00;;;19.90;1.00;;;;;;8357184;28;20182;-64
2022/08/08 18:44:45;;;;;;;3.50;1.00;;;19.50;1.00;;;;;;8350219;28;20187;-65
2022/08/08 18:48:46;;;;;;;0.97;0.70;;;19.20;31.40;;;;;;8336589;28;20196;-66
2022/08/08 18:52:47;;;;;;;2.53;1.20;;;18.90;66.70;;;;;;8342453;28;20193;-65
2022/08/08 18:56:48;;;;;;;1.53;0.80;;;18.60;98.60;;;;;;8340099;28;20213;-65
2022/08/08 19:00:49;;;;;;;1.37;0.90;;;18.30;99.90;;;;;;8343027;28;20191;-66
2022/08/08 19:04:50;;;;;;;2.07;0.90;;;18.00;99.90;;;;;;8333206;28;20201;-65
2022/08/08 19:08:51;;;;;;;2.40;1.13;;;17.70;99.90;;;;;;8339012;28;20317;-65
2022/08/08 19:12:52;;;;;;;2.20;0.90;;;17.50;99.90;;;;;;8353281;28;20229;-65
2022/08/08 19:16:53;;;;;;;1.30;1.00;;;17.30;99.90;;;;;;8334669;28;20218;-65
2022/08/08 19:20:53;;;;;;;2.60;0.83;;;17.10;99.90;;;;;;8355700;28;20246;-65
2022/08/08 19:24:59;;;;;;;0.90;0.73;;;16.90;99.90;;;;;;8338083;28;20224;-65
2022/08/08 19:29:01;;;;;;;1.27;0.90;;;16.70;99.90;;;;;;8342414;28;20186;-65
2022/08/08 19:33:02;;;;;;;0.70;0.70;;;16.50;99.90;;;;;;8343639;28;20228;-65
2022/08/08 19:37:03;;;;;;;0.70;0.60;;;16.30;99.90;;;;;;8337028;28;20291;-65
2022/08/08 19:41:05;;;;;;;0.70;0.57;;;16.20;99.90;;;;;;8340049;28;20268;-66
2022/08/08 19:45:07;;;;;;;1.30;1.10;;;16.00;99.90;;;;;;8335433;28;20197;-65
2022/08/08 19:49:09;;;;;;;0.80;0.80;;;15.90;99.90;;;;;;8317791;28;20194;-65
2022/08/08 19:53:10;;;;;;;2.13;1.30;;;15.80;99.90;;;;;;8338962;28;20237;-65
2022/08/08 19:57:11;;;;;;;1.43;1.00;;;15.70;99.90;;;;;;8332118;28;20275;-65
2022/08/08 20:01:12;;;;;;;1.10;1.00;;;15.60;99.90;;;;;;8354210;28;20194;-65
2022/08/08 20:05:13;;;;;;;1.40;1.10;;;15.50;99.90;;;;;;8340898;28;20201;-65
2022/08/08 20:09:14;;;;;;;1.00;0.83;;;15.40;1.00;;;;;;8349552;28;20511;-66
2022/08/08 20:13:15;;;;;;;0.70;0.70;;;15.30;1.00;;;;;;8335887;28;20210;-66
2022/08/08 20:17:16;;;;;;;1.30;1.20;;;15.10;1.00;;;;;;8336747;28;20296;-66
2022/08/08 20:21:16;;;;;;;1.20;1.10;;;15.00;1.00;;;;;;8345414;28;20186;-67
2022/08/08 20:25:19;;;;;;;1.33;1.07;;;14.80;1.00;;;;;;8342644;28;20234;-66
2022/08/08 20:29:19;;;;;;;1.83;0.87;;;14.60;62.20;;;;;;8347916;28;20182;-66
2022/08/08 20:33:20;;;;;;;1.00;0.90;;;14.50;99.90;;;;;;8336399;28;20190;-66
2022/08/08 20:37:22;;;;;;;1.43;1.00;;;14.40;98.80;;;;;;8336409;28;20245;-67
2022/08/08 20:41:23;;;;;;;1.83;1.20;;;14.30;99.90;;;;;;8351401;28;20189;-66
2022/08/08 20:45:25;;;;;;;1.77;1.10;;;14.20;99.90;;;;;;8338016;28;20221;-66
2022/08/08 20:49:25;;;;;;;1.40;1.20;;;14.20;99.90;;;;;;8336277;28;20224;-66
2022/08/08 20:53:26;;;;;;;1.70;1.00;;;14.00;99.90;;;;;;8336440;28;20191;-66
2022/08/08 20:57:27;;;;;;;1.10;0.97;;;14.00;99.90;;;;;;8339065;28;20214;-66
2022/08/08 21:01:28;;;;;;;1.73;1.40;;;13.90;99.90;;;;;;8333070;28;20185;-66
2022/08/08 21:05:32;;;;;;;1.17;1.07;;;13.80;99.90;;;;;;8333790;28;20198;-67
2022/08/08 21:09:32;;;;;;;1.10;0.97;;;13.70;99.90;;;;;;8333741;28;20262;-69
2022/08/08 21:13:34;;;;;;;1.80;1.40;;;13.60;99.90;;;;;;8336235;28;20223;-66
2022/08/08 21:17:35;;;;;;;1.63;1.30;;;13.60;1.00;;;;;;8343372;28;20296;-66
2022/08/08 21:21:36;;;;;;;1.37;1.27;;;13.60;99.90;;;;;;8343987;28;20197;-66
2022/08/08 21:25:37;;;;;;;1.80;1.33;;;13.50;99.90;;;;;;8335195;28;20203;-67